Flight Track Log - Related Links

Times and Time Zones

All times are in EDT time to prevent confusion due to time zone crossing. See the N683FE flight status page for this flight to view local times or setup timezone preferences in your user account.

Time Position Orientation Groundspeed Altitude Reporting Facility
EDT Latitude Longitude Course Direction KTS MPH feet Rate Location/Type
Tue 04:56:59 AM 35.0333 -89.9667 180° South 145 167 1,100  Level KMEM
Tue 04:57:41 AM 35.0000 -89.9667 180° South 160 184 3,000 2,353 Climbing KMEM
Tue 04:58:41 AM 34.9333 -89.9333 158° South 264 304 5,100 2,650 Climbing KMEM
Tue 04:59:41 AM 34.9333 -89.8500 90° East 307 353 8,300 3,200 Climbing KMEM
Tue 05:00:56 AM 34.9972 -89.7233 58° Northeast 372 428 12,300 3,289 Climbing Memphis Center
Tue 05:01:56 AM 35.0403 -89.5886 69° East 404 465 15,700 3,700 Climbing Memphis Center
Tue 05:02:56 AM 35.0792 -89.4436 72° East 434 499 19,700 3,100 Climbing Memphis Center
Tue 05:03:56 AM 35.1156 -89.3111 71° East 449 517 21,900 2,550 Climbing Memphis Center
Tue 05:04:56 AM 35.1581 -89.1558 71° East 476 548 24,800 2,700 Climbing Memphis Center
Tue 05:05:56 AM 35.2042 -88.9875 71° East 491 565 27,300 2,600 Climbing Memphis Center
Tue 05:06:56 AM 35.2461 -88.8214 73° East 506 582 30,000 493 Climbing Memphis Center
Tue 05:12:33 AM 35.4950 -87.8740 73° East 35,000 342 Climbing FlightAware ADS-B
Tue 05:13:08 AM 35.5210 -87.7740 72° East 35,000  Level FlightAware ADS-B
Tue 05:13:48 AM 35.5490 -87.6660 72° East 35,000  Level FlightAware ADS-B
Tue 05:14:38 AM 35.5840 -87.5300 72° East 35,000  Level FlightAware ADS-B
Tue 05:15:18 AM 35.6130 -87.4170 72° East 35,000  Level FlightAware ADS-B
Tue 05:15:58 AM 35.6410 -87.3050 73° East 35,000  Level FlightAware ADS-B
Tue 05:16:58 AM 35.6830 -87.1370 73° East 35,000  Level FlightAware ADS-B
Tue 05:17:38 AM 35.7120 -87.0210 73° East 35,000  Level FlightAware ADS-B
Tue 05:18:23 AM 35.7440 -86.8960 72° East 35,000  Level FlightAware ADS-B
Tue 05:19:03 AM 35.7710 -86.7820 74° East 35,000  Level FlightAware ADS-B
Tue 05:19:43 AM 35.7990 -86.6720 73° East 35,000  Level FlightAware ADS-B
Tue 05:20:28 AM 35.8290 -86.5470 73° East 35,000  Level FlightAware ADS-B
Tue 05:21:08 AM 35.8570 -86.4330 73° East 35,000  Level FlightAware ADS-B
Tue 05:21:33 AM 35.8759 -86.3555 73° East 512 589 35,000  Level FlightAware ADS-B
Tue 05:22:04 AM 35.8966 -86.2700 73° East 510 587 35,000  Level FlightAware ADS-B
Tue 05:22:34 AM 35.9169 -86.1860 73° East 514 592 35,000  Level FlightAware ADS-B
Tue 05:23:13 AM 35.9410 -86.0830 74° East 35,000  Level FlightAware ADS-B
Tue 05:23:39 AM 35.9610 -86.0020 73° East 511 588 35,000  Level FlightAware ADS-B
Tue 05:24:10 AM 35.9819 -85.9148 73° East 526 605 35,000  Level FlightAware ADS-B
Tue 05:24:56 AM 36.0129 -85.7837 74° East 521 600 35,000  Level FlightAware ADS-B
Tue 05:25:27 AM 36.0329 -85.6990 74° East 502 578 35,000  Level FlightAware ADS-B
Tue 05:25:57 AM 36.0535 -85.6128 74° East 527 606 35,000  Level FlightAware ADS-B
Tue 05:26:35 AM 36.0791 -85.5038 74° East 510 587 35,000  Level FlightAware ADS-B
Tue 05:27:06 AM 36.0992 -85.4175 74° East 501 577 35,000  Level FlightAware ADS-B
Tue 05:27:43 AM 36.1239 -85.3112 74° East 534 615 35,000  Level FlightAware ADS-B
Tue 05:28:14 AM 36.1437 -85.2261 74° East 523 602 35,000  Level FlightAware ADS-B
Tue 05:28:48 AM 36.1660 -85.1298 74° East 500 575 35,000  Level FlightAware ADS-B
Tue 05:29:18 AM 36.1860 -85.0429 74° East 513 590 35,000  Level FlightAware ADS-B
Tue 05:29:49 AM 36.2061 -84.9547 74° East 513 590 35,000  Level FlightAware ADS-B
Tue 05:30:20 AM 36.2257 -84.8680 74° East 511 588 35,000  Level FlightAware ADS-B
Tue 05:30:50 AM 36.2456 -84.7813 74° East 518 596 35,000  Level FlightAware ADS-B
Tue 05:31:23 AM 36.2671 -84.6874 74° East 526 605 35,000  Level FlightAware ADS-B
Tue 05:31:53 AM 36.2868 -84.6004 74° East 531 611 35,000  Level FlightAware ADS-B
Tue 05:32:24 AM 36.3062 -84.5134 75° East 506 582 35,000  Level FlightAware ADS-B
Tue 05:32:55 AM 36.3255 -84.4267 75° East 504 580 35,000  Level FlightAware ADS-B
Tue 05:33:25 AM 36.3448 -84.3402 74° East 513 590 35,000  Level FlightAware ADS-B
Tue 05:33:56 AM 36.3642 -84.2540 74° East 505 581 35,000  Level FlightAware ADS-B
Tue 05:34:26 AM 36.3831 -84.1690 75° East 511 588 35,000  Level FlightAware ADS-B
Tue 05:34:56 AM 36.4020 -84.0825 75° East 506 582 35,000  Level FlightAware ADS-B
Tue 05:35:28 AM 36.4219 -83.9920 75° East 521 600 35,000  Level FlightAware ADS-B
Tue 05:35:58 AM 36.4406 -83.9072 75° East 520 598 35,000  Level FlightAware ADS-B
Tue 05:36:28 AM 36.4592 -83.8224 75° East 511 588 35,000  Level FlightAware ADS-B
Tue 05:36:58 AM 36.4777 -83.7374 75° East 515 593 35,000  Level FlightAware ADS-B
Tue 05:37:30 AM 36.4969 -83.6484 75° East 504 580 35,000  Level FlightAware ADS-B
Tue 05:38:00 AM 36.5153 -83.5634 75° East 504 580 35,000  Level FlightAware ADS-B
Tue 05:38:30 AM 36.5340 -83.4769 75° East 508 585 35,000  Level FlightAware ADS-B
Tue 05:39:00 AM 36.5522 -83.3916 75° East 502 578 35,000  Level FlightAware ADS-B
Tue 05:39:38 AM 36.5752 -83.2839 75° East 519 597 35,000  Level FlightAware ADS-B
Tue 05:40:18 AM 36.5991 -83.1708 75° East 506 582 35,000  Level FlightAware ADS-B
Tue 05:40:48 AM 36.6171 -83.0862 75° East 519 597 35,000  Level FlightAware ADS-B
Tue 05:42:01 AM 36.6282 -82.8742 86° East 509 586 35,000  Level FlightAware ADS-B
Tue 05:42:32 AM 36.6303 -82.7815 88° East 518 596 35,000  Level FlightAware ADS-B
Tue 05:43:06 AM 36.6326 -82.6812 88° East 517 595 35,000  Level FlightAware ADS-B
Tue 05:43:42 AM 36.6350 -82.5765 88° East 514 592 35,000  Level FlightAware ADS-B
Tue 05:44:58 AM 36.6396 -82.3526 88° East 510 587 35,000  Level FlightAware ADS-B
Tue 05:45:28 AM 36.6415 -82.2632 88° East 500 575 35,000  Level FlightAware ADS-B
Tue 05:45:59 AM 36.6432 -82.1736 89° East 506 582 35,000  Level FlightAware ADS-B
Tue 05:46:31 AM 36.6447 -82.0794 89° East 504 580 35,000  Level FlightAware ADS-B
Tue 05:47:03 AM 36.6464 -81.9836 89° East 506 582 35,000  Level FlightAware ADS-B
Tue 05:47:35 AM 36.6494 -81.8905 88° East 511 588 35,000 -429 Level FlightAware ADS-B
Tue 05:48:13 AM 36.6622 -81.7780 82° East 514 592 34,500 -783 Descending FlightAware ADS-B
Tue 05:48:44 AM 36.6804 -81.6904 75° East 488 562 34,100 -462 Descending FlightAware ADS-B
Tue 05:49:18 AM 36.7033 -81.5958 73° East 506 582 34,000 -94 Descending FlightAware ADS-B
Tue 05:49:48 AM 36.7234 -81.5113 73° East 507 583 34,000  Level FlightAware ADS-B
Tue 05:50:38 AM 36.7563 -81.3697 74° East 516 594 34,000 -148 Level FlightAware ADS-B
Tue 05:51:09 AM 36.7760 -81.2832 74° East 509 586 33,800 -824 Descending FlightAware ADS-B
Tue 05:51:29 AM 36.7811 -81.2319 74° East 505 581 33,300 -1,575 Descending Atlanta Center
Tue 05:52:29 AM 36.8208 -81.0594 74° East 499 574 31,700 -1,846 Descending Atlanta Center
Tue 05:54:18 AM 36.8914 -80.7628 73° East 519 597 28,100 -1,988 Descending Washington Center
Tue 05:55:18 AM 36.9303 -80.5858 75° East 519 597 26,100 -1,550 Descending Washington Center
Tue 05:56:18 AM 36.9736 -80.3964 74° East 524 603 25,000 -550 Descending Washington Center
Tue 05:57:18 AM 37.0011 -80.2264 79° East 513 590 25,000 -100 Level Washington Center
Tue 05:58:18 AM 36.9889 -80.0489 95° East 494 568 24,800 -950 Descending Washington Center
Tue 05:59:18 AM 36.9172 -79.9044 122° Southeast 480 552 23,100 -1,850 Descending Washington Center
Tue 06:00:18 AM 36.8444 -79.7783 126° Southeast 480 552 21,100 -2,000 Descending Washington Center
Tue 06:01:18 AM 36.7719 -79.6394 123° Southeast 486 559 19,100 -1,850 Descending Washington Center
Tue 06:02:18 AM 36.7033 -79.5064 123° Southeast 472 543 17,400 -1,950 Descending Washington Center
Tue 06:03:18 AM 36.6286 -79.3656 123° Southeast 453 521 15,200 -2,050 Descending Washington Center
Tue 06:04:18 AM 36.5617 -79.2408 124° Southeast 446 513 13,300 -1,871 Descending Washington Center
Tue 06:04:51 AM 36.5281 -79.1772 123° Southeast 424 488 12,300 -1,882 Descending Washington Center
Tue 06:05:09 AM 36.5061 -79.1425 128° Southeast 423 487 11,700 -1,624 Descending Washington Center
Tue 06:06:16 AM 36.4389 -79.0181 124° Southeast 402 463 10,000 -945 Descending Washington Center
Tue 06:07:16 AM 36.3614 -78.9478 144° Southeast 300 345 9,700 -730 Descending Washington Center
Tue 06:08:11 AM 36.2978 -78.9114 155° Southeast 282 325 8,600 -1,137 Descending Washington Center
Tue 06:13:23 AM 35.9650 -78.7050 155° Southeast 1,900 -1,128 Descending FlightAware ADS-B
Tue 06:13:48 AM 35.9530 -78.7080 191° South 1,700 -218 Descending FlightAware ADS-B
Tue 06:14:18 AM 35.9378 -78.7219 191° South 132 152 1,700 -387 Level Washington Center
Tue 06:15:21 AM 35.9161 -78.7517 228° Southwest 104 120 1,100 -571 Descending Washington Center
Tue 06:17:00 AM 35.8776 -78.7875 90° East  Level Estimated
Tue 06:24:00 AM 35.8776 -78.7875 90° East  Level Estimated

Login

Don't have an account? Register now (free) for customized features, flight alerts, and more!